Terminal Aerodrome Forecast
Issued by NWS Anchorage, AK

Home | Current Version | Previous Version | Text Only | Print | Product List | Glossary On
Versions: 1 2 3 4 5 6 7 8 9 10 11 12 13 14 15 16 17 18 19 20 21 22 23 24 25 26 27 28 29 30 31 32 33 34 35 36
000
FTAK31 PANC 031730
TAFANC
TAF
PANC 031730Z 0318/0424 VRB04KT P6SM FEW080 SCT140
     FM032100 30009KT P6SM SCT045
     FM040600 22006KT P6SM FEW050
     FM041000 VRB03KT P6SM SCT050
     FM042100 30007KT P6SM BKN200=

USA.gov is the U.S. government's official web portal to all federal, state and local government web resources and services.